Latest Weather Observations for Applethorpe

IDQ60801

Issued at 8:32 pm EST Friday 18 August 2017 (issued every 30 minutes, with the page automatically refreshed every 10 minutes)

About weather observations | Map of weather stations | Latest weather observations for QLD | Other Formats
Station Details ID: 041175 Name: APPLETHORPE Lat: -28.62 Lon: 151.95 Height: 871.6 m
Data from the previous 72 hours. | See also: Recent months at Applethorpe
Date/Time
EST
Temp
°C
App
Temp
°C
Dew
Point
°C
Rel
Hum
%
Delta-T
°C
Wind Press
QNH
hPa
Press
MSL
hPa
Rain since
9am
mm
Dir  Spd
km/h
Gust
km/h
Spd
kts
Gust
kts
18/08:30pm 8.8 3.0 -4.4 39 5.0 SW 17 28 9 15 1016.7 1016.4 0.0
18/08:00pm 9.2 3.0 -4.5 37 5.2 WSW 19 32 10 17 1016.5 1016.2 0.0
18/07:30pm 9.7 3.3 -4.5 36 5.4 WSW 20 33 11 18 1016.3 1015.9 0.0
18/07:00pm 9.9 3.7 -4.5 36 5.5 WSW 19 32 10 17 1016.0 1015.6 0.0
18/06:30pm 10.3 3.9 -4.6 35 5.7 WSW 20 35 11 19 1015.7 1015.4 0.0
18/06:00pm 10.8 4.0 -4.9 33 6.0 WSW 22 43 12 23 1015.4 1015.0 0.0
18/05:30pm 11.2 5.0 -4.5 33 6.1 WSW 19 32 10 17 1015.1 1014.7 0.0
18/05:00pm 12.0 5.2 -4.7 31 6.5 WSW 22 37 12 20 1014.9 1014.5 0.0
18/04:43pm 12.5 4.5 -5.4 28 6.9 WSW 28 46 15 25 1014.4 1014.0 0.0
18/04:30pm 12.8 5.6 -5.2 28 7.0 WSW 24 43 13 23 1014.3 1013.9 0.0
18/04:00pm 13.4 6.6 -4.9 27 7.2 WSW 22 44 12 24 1014.1 1013.7 0.0
18/03:33pm 13.5 5.6 -5.1 27 7.3 WSW 28 50 15 27 1014.1 1013.7 0.0
18/03:30pm 13.8 6.7 -4.5 28 7.3 WSW 24 48 13 26 1014.0 1013.6 0.0
18/03:00pm 14.0 5.6 -5.8 25 7.7 W 30 52 16 28 1013.9 1013.5 0.0
18/02:44pm 14.3 6.4 -4.7 26 7.6 WSW 28 48 15 26 1013.9 1013.5 0.0
18/02:30pm 14.8 8.6 -4.6 26 7.8 WSW 19 41 10 22 1013.8 1013.4 0.0
18/02:00pm 14.5 6.0 -7.1 22 8.2 W 30 59 16 32 1013.9 1013.5 0.0
18/01:34pm 14.6 6.6 -5.4 24 7.9 WSW 28 46 15 25 1014.1 1013.7 0.0
18/01:30pm 14.8 7.6 -5.0 25 7.9 W 24 44 13 24 1014.1 1013.7 0.0
18/01:00pm 14.7 7.7 -3.5 28 7.5 WSW 24 43 13 23 1014.4 1014.0 0.0
18/12:30pm 14.1 5.9 -4.3 27 7.4 W 30 52 16 28 1014.8 1014.4 0.0
18/12:26pm 14.2 6.4 -4.1 28 7.4 W 28 52 15 28 1014.8 1014.4 0.0
18/12:00pm 14.8 7.8 -3.4 28 7.5 WSW 24 48 13 26 1015.1 1014.7 0.0
18/11:30am 13.9 6.6 -3.1 30 7.0 WSW 26 52 14 28 1015.5 1015.2 0.0
18/11:02am 13.6 5.8 -4.1 29 7.1 WSW 28 52 15 28 1016.1 1015.7 0.0
18/11:00am 13.7 6.3 -3.9 29 7.1 WSW 26 52 14 28 1016.0 1015.6 0.0
18/10:30am 13.4 5.6 -4.1 29 7.0 WSW 28 50 15 27 1016.3 1015.9 0.0
18/10:00am 13.9 6.9 -3.9 29 7.2 WSW 24 46 13 25 1016.4 1016.0 0.0
18/09:30am 13.5 5.6 -4.3 29 7.1 WSW 28 44 15 24 1016.3 1015.9 0.0
18/09:27am 13.5 5.6 -4.3 29 7.1 WSW 28 50 15 27 1016.2 1015.8 0.0
18/09:00am 13.1 6.0 -4.6 29 7.0 WSW 24 43 13 23 1016.2 1015.8 0.0
18/08:30am 12.3 6.2 -4.1 31 6.5 WSW 19 33 10 18 1016.1 1015.7 0.0
18/08:00am 11.3 6.0 -4.0 34 6.0 WSW 15 33 8 18 1016.0 1015.6 0.0
18/07:30am 10.1 4.7 -4.1 36 5.5 WSW 15 24 8 13 1015.7 1015.4 0.0
18/07:00am 9.3 4.3 -4.4 37 5.2 WSW 13 26 7 14 1015.4 1015.0 0.0
18/06:30am 9.2 3.4 -4.5 37 5.2 WSW 17 24 9 13 1015.3 1014.9 0.0
18/06:00am 9.1 4.1 -4.3 38 5.1 WSW 13 24 7 13 1015.0 1014.6 0.0
18/05:30am 9.2 4.3 -3.8 39 5.0 WSW 13 24 7 13 1014.8 1014.4 0.0
18/05:00am 9.7 4.3 -4.4 36 5.4 WSW 15 24 8 13 1014.5 1014.2 0.0
18/04:30am 9.9 4.9 -4.1 37 5.4 WSW 13 28 7 15 1014.5 1014.2 0.0
18/04:00am 10.4 5.1 -4.0 36 5.6 WSW 15 26 8 14 1014.4 1014.0 0.0
18/03:30am 10.2 4.9 -3.6 37 5.4 WSW 15 30 8 16 1014.3 1013.9 0.0
18/03:00am 10.1 5.2 -3.4 38 5.3 WSW 13 22 7 12 1014.3 1013.9 0.0
18/02:30am 10.3 5.4 -3.0 39 5.3 WSW 13 24 7 13 1014.4 1014.0 0.0
18/02:00am 10.2 5.8 -2.1 42 5.0 WSW 11 20 6 11 1014.6 1014.3 0.0
18/01:30am 10.6 5.9 -1.9 41 5.1 WSW 13 24 7 13 1014.8 1014.4 0.0
18/01:00am 10.4 6.1 -1.5 43 4.9 WSW 11 24 6 13 1015.1 1014.7 0.0
18/12:30am 10.4 6.1 -1.5 43 4.9 WSW 11 17 6 9 1015.2 1014.8 0.0
18/12:00am 10.4 6.6 -0.8 46 4.7 WSW 9 13 5 7 1015.3 1014.9 0.0
 
Date/Time
EST
Temp
°C
App
Temp
°C
Dew
Point
°C
Rel
Hum
%
Delta-T
°C
Wind Press
QNH
hPa
Press
MSL
hPa
Rain since
9am
mm
Dir  Spd
km/h
Gust
km/h
Spd
kts
Gust
kts
17/11:30pm 10.2 6.4 -0.5 47 4.5 WSW 9 13 5 7 1015.4 1015.0 0.0
17/11:00pm 10.1 6.7 -0.3 48 4.4 WSW 7 9 4 5 1015.5 1015.2 0.0
17/10:30pm 10.2 7.1 0.1 49 4.3 W 6 11 3 6 1015.6 1015.3 0.0
17/10:00pm 10.6 7.3 0.1 48 4.5 WSW 7 9 4 5 1015.6 1015.3 0.0
17/09:30pm 11.2 7.9 0.0 46 4.8 WSW 7 11 4 6 1015.6 1015.3 0.0
17/09:00pm 11.3 8.1 0.5 47 4.7 WSW 7 9 4 5 1015.6 1015.3 0.0
17/08:30pm 12.2 9.0 0.6 45 5.1 WSW 7 15 4 8 1015.6 1015.3 0.0
17/08:00pm 13.3 9.7 0.7 42 5.6 WSW 9 13 5 7 1015.5 1015.2 0.0
17/07:30pm 14.0 10.0 0.5 39 6.0 WSW 11 19 6 10 1015.2 1014.8 0.0
17/07:00pm 14.9 10.9 0.4 37 6.5 WSW 11 19 6 10 1014.8 1014.4 0.0
17/06:30pm 15.7 11.7 0.4 35 6.9 WSW 11 20 6 11 1014.3 1013.9 0.0
17/06:00pm 16.4 12.0 0.6 34 7.2 WSW 13 22 7 12 1014.0 1013.6 0.0
17/05:30pm 17.3 12.6 1.2 33 7.5 WSW 15 28 8 15 1013.6 1013.2 0.0
17/05:00pm 18.6 14.0 1.8 32 8.0 W 15 30 8 16 1013.1 1012.7 0.0
17/04:30pm 19.6 14.8 2.5 32 8.3 W 17 33 9 18 1012.9 1012.5 0.0
17/04:00pm 20.1 15.1 3.4 33 8.3 W 19 37 10 20 1012.7 1012.3 0.0
17/03:30pm 20.6 15.7 4.2 34 8.3 WSW 19 33 10 18 1012.6 1012.2 0.0
17/03:00pm 20.8 16.0 4.5 34 8.3 W 19 37 10 20 1012.6 1012.2 0.0
17/02:30pm 20.8 16.1 5.3 36 8.0 WSW 19 37 10 20 1012.5 1012.0 0.0
17/02:00pm 20.9 16.1 5.5 36 8.0 W 20 39 11 21 1012.7 1012.3 0.0
17/01:30pm 21.2 17.0 5.9 37 8.0 WSW 17 33 9 18 1012.8 1012.4 0.0
17/01:00pm 20.7 16.0 6.0 38 7.7 W 20 35 11 19 1012.9 1012.5 0.0
17/12:30pm 20.4 15.6 5.5 37 7.7 W 20 33 11 18 1013.3 1012.9 0.0
17/12:00pm 20.1 14.9 5.6 38 7.5 W 22 37 12 20 1013.8 1013.4 0.0
17/11:30am 20.3 15.5 5.6 38 7.6 W 20 35 11 19 1014.1 1013.7 0.0
17/11:00am 20.0 15.3 5.2 38 7.6 W 19 33 10 18 1014.5 1014.2 0.0
17/10:30am 19.6 14.8 4.8 37 7.5 W 19 35 10 19 1015.0 1014.6 0.0
17/10:00am 19.7 15.8 5.2 38 7.4 W 15 28 8 15 1015.0 1014.6 0.0
17/09:30am 19.3 15.7 4.9 38 7.3 W 13 30 7 16 1015.0 1014.6 0.0
17/09:00am 18.6 15.2 4.1 38 7.2 W 11 24 6 13 1015.1 1014.7 0.0
17/08:30am 17.6 14.5 3.7 39 6.8 W 9 15 5 8 1015.0 1014.6 0.0
17/08:00am 16.0 13.9 4.1 45 5.8 WNW 4 9 2 5 1015.0 1014.6 0.0
17/07:30am 12.4 10.7 4.2 57 3.9 W 2 4 1 2 1014.8 1014.4 0.0
17/07:00am 8.3 6.5 3.2 70 2.3 WNW 2 4 1 2 1014.5 1014.2 0.0
17/06:30am 6.1 4.0 3.9 86 1.0 NW 4 4 2 2 1014.3 1013.9 0.0
17/06:00am 5.6 3.4 3.6 87 0.9 NW 4 6 2 3 1014.1 1013.7 0.0
17/05:30am 5.6 3.4 3.6 87 0.9 NNW 4 6 2 3 1013.9 1013.5 0.0
17/05:00am 5.6 3.8 3.6 87 0.9 NW 2 4 1 2 1013.7 1013.3 0.0
17/04:30am 5.8 3.7 3.8 87 0.9 NW 4 6 2 3 1013.7 1013.3 0.0
17/04:00am 6.1 3.9 3.6 84 1.1 NNW 4 4 2 2 1013.7 1013.3 0.0
17/03:30am 6.2 4.5 4.0 86 1.0 NNW 2 4 1 2 1013.6 1013.2 0.0
17/03:00am 6.7 4.6 4.1 83 1.2 NNW 4 4 2 2 1013.6 1013.2 0.0
17/02:30am 7.1 5.4 4.0 81 1.4 NNW 2 4 1 2 1013.9 1013.5 0.0
17/02:00am 7.9 6.2 4.2 77 1.7 N 2 4 1 2 1014.2 1013.8 0.0
17/01:30am 9.1 7.6 2.9 65 2.8 CALM 0 0 0 0 1014.3 1013.9 0.0
17/01:00am 10.2 8.7 3.0 61 3.3 CALM 0 0 0 0 1014.5 1014.2 0.0
17/12:30am 12.4 10.6 3.2 53 4.3 WSW 2 7 1 4 1014.5 1014.2 0.0
17/12:00am 12.8 10.9 2.6 50 4.7 WNW 2 6 1 3 1014.4 1014.0 0.0
 
Date/Time
EST
Temp
°C
App
Temp
°C
Dew
Point
°C
Rel
Hum
%
Delta-T
°C
Wind Press
QNH
hPa
Press
MSL
hPa
Rain since
9am
mm
Dir  Spd
km/h
Gust
km/h
Spd
kts
Gust
kts
16/11:30pm 13.9 11.6 2.5 46 5.3 NNW 4 7 2 4 1014.6 1014.3 0.0
16/11:00pm 11.3 9.6 4.1 61 3.4 NNW 2 6 1 3 1014.3 1013.9 0.0
16/10:30pm 13.4 11.5 2.6 48 5.0 WNW 2 2 1 1 1014.4 1014.0 0.0
16/10:00pm 13.7 11.9 3.3 49 4.9 NW 2 6 1 3 1014.4 1014.0 0.0
16/09:30pm 16.2 13.6 1.2 36 6.9 WNW 4 6 2 3 1014.3 1013.9 0.0
16/09:00pm 17.6 15.1 1.7 34 7.5 WNW 4 7 2 4 1014.2 1013.8 0.0
16/08:30pm 17.9 14.9 1.8 34 7.6 WSW 7 15 4 8 1014.2 1013.8 0.0
16/08:00pm 18.2 15.5 2.6 35 7.5 WNW 6 9 3 5 1013.6 1013.2 0.0
16/07:30pm 19.1 16.8 2.6 33 8.0 WNW 4 7 2 4 1013.3 1012.9 0.0
16/07:00pm 20.3 16.8 1.5 28 9.0 WNW 9 17 5 9 1013.1 1012.7 0.0
16/06:30pm 20.6 17.7 2.4 30 8.9 WNW 7 11 4 6 1012.9 1012.5 0.0
16/06:00pm 21.8 18.3 1.3 25 9.9 W 9 15 5 8 1012.6 1012.2 0.0
16/05:30pm 22.6 18.2 0.4 23 10.6 W 13 24 7 13 1012.3 1011.8 0.0
16/05:00pm 23.6 18.7 -0.5 20 11.4 W 15 26 8 14 1011.9 1011.5 0.0
16/04:30pm 24.4 19.2 0.4 20 11.6 W 17 37 9 20 1011.7 1011.3 0.0
16/04:00pm 24.7 19.1 -0.1 19 11.9 W 19 35 10 19 1011.4 1010.9 0.0
16/03:30pm 25.1 19.3 -0.4 18 12.2 W 20 43 11 23 1011.3 1010.8 0.0
16/03:00pm 25.4 20.1 -0.5 18 12.4 WNW 17 35 9 19 1011.3 1010.8 0.0
16/02:30pm 24.9 18.4 0.0 19 12.0 W 24 41 13 22 1011.4 1010.9 0.0
16/02:00pm 24.7 18.1 -0.5 19 12.0 WNW 24 48 13 26 1011.5 1011.0 0.0
16/01:30pm 24.7 17.9 0.7 20 11.7 W 26 44 14 24 1011.8 1011.4 0.0
16/01:23pm 24.3 17.1 0.6 21 11.5 WNW 28 50 15 27 1012.1 1011.7 0.0
16/01:00pm 24.3 18.0 1.6 22 11.2 WNW 24 44 13 24 1012.4 1011.9 0.0
16/12:30pm 24.1 18.2 1.9 23 11.0 W 22 43 12 23 1012.8 1012.4 0.0
16/12:00pm 23.2 18.2 4.4 29 9.7 WNW 20 41 11 22 1013.3 1012.9 0.0
16/11:30am 22.9 18.5 4.5 30 9.5 WNW 17 37 9 20 1013.9 1013.5 0.0
16/11:00am 22.1 17.2 4.0 30 9.2 WNW 19 41 10 22 1014.4 1014.0 0.0
16/10:30am 21.8 16.8 3.8 30 9.1 WNW 19 33 10 18 1015.0 1014.6 0.0
16/10:00am 20.9 16.8 4.3 33 8.4 NW 15 28 8 15 1015.2 1014.8 0.0
16/09:30am 20.0 16.7 4.6 36 7.8 NW 11 26 6 14 1015.5 1015.2 0.0
16/09:00am 19.2 15.1 4.2 37 7.5 NW 15 28 8 15 1015.7 1015.4 0.0
16/08:30am 18.2 13.3 4.1 39 7.0 NW 19 43 10 23 1015.7 1015.4 0.0
16/08:00am 16.6 12.5 4.4 44 6.0 NNW 15 30 8 16 1015.6 1015.3 0.0
16/07:30am 15.3 11.6 4.2 47 5.4 NNW 13 20 7 11 1015.7 1015.4 0.0
16/07:00am 14.1 10.3 4.1 51 4.8 NNW 13 24 7 13 1015.6 1015.3 0.0
16/06:30am 13.7 9.8 3.6 50 4.8 NNW 13 19 7 10 1015.5 1015.2 0.0
16/06:00am 14.0 9.6 2.9 47 5.2 NNW 15 22 8 12 1015.2 1014.8 0.0
16/05:30am 14.0 9.9 2.4 45 5.4 N 13 22 7 12 1015.0 1014.6 0.0
16/05:00am 13.9 9.8 2.5 46 5.3 N 13 22 7 12 1015.0 1014.6 0.0
16/04:30am 14.0 9.5 2.1 44 5.5 N 15 22 8 12 1014.9 1014.5 0.0
16/04:00am 14.4 9.9 2.1 43 5.7 N 15 28 8 15 1014.9 1014.5 0.0
16/03:30am 14.8 10.7 2.1 42 5.9 NNW 13 24 7 13 1015.2 1014.8 0.0
16/03:00am 14.3 10.1 1.6 42 5.8 NNW 13 24 7 13 1015.4 1015.0 0.0
16/02:30am 14.2 10.0 1.8 43 5.7 NNW 13 20 7 11 1015.5 1015.2 0.0
16/02:00am 14.3 10.1 1.9 43 5.7 N 13 20 7 11 1015.7 1015.4 0.0
16/01:30am 14.3 10.1 1.9 43 5.7 N 13 24 7 13 1016.0 1015.6 0.0
16/01:00am 13.8 10.3 1.5 43 5.6 N 9 19 5 10 1016.3 1015.9 0.0
16/12:30am 14.1 10.7 1.6 42 5.7 N 9 17 5 9 1016.6 1016.3 0.0
16/12:00am 14.7 10.8 1.0 39 6.2 N 11 17 6 9 1016.8 1016.5 0.0
 
Date/Time
EST
Temp
°C
App
Temp
°C
Dew
Point
°C
Rel
Hum
%
Delta-T
°C
Wind Press
QNH
hPa
Press
MSL
hPa
Rain since
9am
mm
Dir  Spd
km/h
Gust
km/h
Spd
kts
Gust
kts
15/11:30pm 14.5 10.2 1.0 40 6.1 N 13 17 7 9 1017.0 1016.7 0.0
15/11:00pm 14.4 10.4 0.8 39 6.1 N 11 17 6 9 1017.3 1016.9 0.0
15/10:30pm 14.3 10.4 1.0 40 6.0 NNE 11 17 6 9 1017.5 1017.2 0.0
15/10:00pm 11.8 9.0 2.9 54 4.1 NNE 7 13 4 7 1017.5 1017.2 0.0
15/09:30pm 12.7 10.1 3.0 51 4.5 NNE 6 11 3 6 1017.5 1017.2 0.0
15/09:00pm 10.7 7.9 3.0 59 3.5 NNE 7 13 4 7 1017.4 1017.0 0.0

Other Formats:

Comma delimited format used in spreadsheet applications
http://www.bom.gov.au/fwo/IDQ60801/IDQ60801.94553.axf

JavaScript Object Notation format (JSON) in row-major order
http://www.bom.gov.au/fwo/IDQ60801/IDQ60801.94553.json